Rodarte, New Mexico
Current Conditions -  °F | °C
As of 7:55 PM on Saturday 25 Oct 2014 (Local Time) from KSKX Reporting Station
Clear Clear  
Wind Chill: 55°   Ceiling: Unl
Heat Index: 55°   Visibility: 10mi
Dew Point: 19°   Wind: 7mph
Humidity: 25%   Direction: 270°W
Pressure: 30.27"   Gusts: NA
Location:  36.1892°N, 105.688°W
Report Text: KSKX 260155Z AUTO 27006KT 10SM CLR 13/M07 A3027 RMK AO1
Loading
Personal Weather Stations






























Interactive Weather Map
Tropical Storm Tracking
New forecast layout! Learn more

10-Day Weather Forecast

Advertisements
Track Severe Weather on mobile